Time;durP1;ratioP1;P1;durP2;ratioP2;P2;SDS_P1;SDS_P2;PMS_P1;PMS_P2;Temp;Humidity;BMP_temperature;BMP_pressure;BME280_temperature;BME280_humidity;BME280_pressure;Samples;Min_cycle;Max_cycle;Signal;HPM_P1;HPM_P2
2021/07/25 00:00:38;;;;;;;0.22;0.22;;;15.40;99.90;;;;;;4959762;28;20457;-96
2021/07/25 00:03:10;;;;;;;0.50;0.50;;;15.40;99.90;;;;;;4964653;28;20841;-95
2021/07/25 00:05:40;;;;;;;0.30;0.30;;;15.30;99.90;;;;;;4966159;28;20434;-96
2021/07/25 00:08:13;;;;;;;1.90;0.60;;;15.10;99.90;;;;;;4984026;23;20440;-95
2021/07/25 00:11:05;;;;;;;0.40;0.40;;;15.00;99.90;;;;;;4982139;28;20432;-96
2021/07/25 00:14:13;;;;;;;0.40;0.40;;;15.00;99.90;;;;;;4983497;28;20467;-96
2021/07/25 00:17:03;;;;;;;1.80;0.80;;;15.00;99.90;;;;;;4975115;28;20436;-96
2021/07/25 00:19:36;;;;;;;0.98;0.98;;;15.10;99.90;;;;;;4968473;28;20463;-96
2021/07/25 00:22:07;;;;;;;4.70;1.30;;;15.20;99.90;;;;;;4982067;28;20479;-96
2021/07/25 00:24:38;;;;;;;0.35;0.35;;;15.30;99.90;;;;;;4996736;23;21300;-96
2021/07/25 00:27:11;;;;;;;2.22;0.73;;;15.30;99.90;;;;;;4994251;23;20432;-96
2021/07/25 00:30:08;;;;;;;0.30;0.30;;;15.40;99.90;;;;;;4987231;28;20463;-95
2021/07/25 00:32:46;;;;;;;0.77;0.77;;;15.30;99.90;;;;;;4992893;23;20442;-96
2021/07/25 00:43:53;;;;;;;1.57;0.87;;;15.20;99.90;;;;;;5081778;23;20433;-96
2021/07/25 00:46:37;;;;;;;1.30;1.20;;;15.10;99.90;;;;;;5009020;23;20430;31
2021/07/25 00:49:11;;;;;;;0.88;0.70;;;15.20;99.90;;;;;;4955057;23;21004;-96
2021/07/25 00:52:25;;;;;;;1.50;0.52;;;15.10;99.90;;;;;;4968151;28;20448;-96
2021/07/25 00:55:27;;;;;;;0.30;0.30;;;15.10;99.90;;;;;;4966044;28;20477;-96
2021/07/25 00:58:06;;;;;;;0.70;0.60;;;15.10;99.90;;;;;;4991686;23;20508;-95
2021/07/25 01:00:56;;;;;;;0.50;0.50;;;15.10;99.90;;;;;;4966312;28;20412;-96
2021/07/25 01:03:43;;;;;;;0.60;0.60;;;15.00;99.90;;;;;;4965949;23;20792;-96
2021/07/25 01:06:12;;;;;;;7.80;0.93;;;15.10;99.90;;;;;;4966384;28;20456;-96
2021/07/25 01:11:55;;;;;;;2.30;0.70;;;15.00;99.90;;;;;;4923373;29;20468;-96
2021/07/25 01:14:38;;;;;;;1.03;0.27;;;15.00;99.90;;;;;;4952105;23;20436;-96
2021/07/25 01:17:29;;;;;;;1.40;0.90;;;15.00;99.90;;;;;;4971689;23;20453;-96
2021/07/25 01:20:02;;;;;;;0.45;0.45;;;15.00;99.90;;;;;;4964399;28;20508;-96
2021/07/25 01:22:33;;;;;;;0.85;0.82;;;15.00;99.90;;;;;;4970137;23;20492;-96
2021/07/25 01:25:04;;;;;;;0.80;0.65;;;15.00;99.90;;;;;;4962935;28;20457;-96
2021/07/25 01:27:53;;;;;;;0.85;0.75;;;14.90;99.90;;;;;;4975120;23;20410;-96
2021/07/25 01:30:25;;;;;;;2.33;0.82;;;14.90;99.90;;;;;;4942955;29;20481;-95
2021/07/25 01:32:58;;;;;;;1.00;0.90;;;14.80;99.90;;;;;;4944846;29;20443;-95
2021/07/25 01:35:28;;;;;;;0.50;0.50;;;14.90;99.90;;;;;;4943394;29;20486;-96
2021/07/25 01:37:56;;;;;;;1.13;0.98;;;14.80;99.90;;;;;;4969383;23;20528;-96
2021/07/25 01:40:25;;;;;;;0.70;0.50;;;14.80;99.90;;;;;;4965382;28;20917;-96
2021/07/25 01:43:02;;;;;;;0.65;0.65;;;14.80;99.90;;;;;;4964138;28;20457;-95
2021/07/25 01:45:29;;;;;;;0.85;0.85;;;15.00;99.90;;;;;;4959735;29;20429;-96
2021/07/25 01:48:04;;;;;;;1.00;0.60;;;14.90;99.90;;;;;;4988463;23;20860;-96
2021/07/25 01:50:31;;;;;;;0.83;0.83;;;14.80;99.90;;;;;;4986693;28;20476;-95
2021/07/25 01:52:58;;;;;;;2.10;1.23;;;14.90;99.90;;;;;;4979779;28;20436;-96
2021/07/25 01:55:26;;;;;;;1.20;0.70;;;14.90;99.90;;;;;;4988578;23;20542;-96
2021/07/25 01:57:53;;;;;;;0.40;0.40;;;14.80;99.90;;;;;;4982426;28;20468;-96
2021/07/25 02:00:21;;;;;;;0.60;0.60;;;14.80;99.90;;;;;;4988404;28;20410;-96
2021/07/25 02:02:48;;;;;;;1.38;0.73;;;14.80;99.90;;;;;;4997567;28;20475;-95
2021/07/25 02:05:15;;;;;;;0.60;0.60;;;14.90;99.90;;;;;;4984237;28;20403;-95
2021/07/25 02:07:42;;;;;;;3.80;1.20;;;14.90;99.90;;;;;;4980386;28;20429;-95
2021/07/25 02:10:10;;;;;;;0.80;0.65;;;14.90;99.90;;;;;;4978331;28;20439;-95
2021/07/25 02:12:37;;;;;;;0.55;0.55;;;14.90;99.90;;;;;;4981135;28;20923;-95
2021/07/25 02:17:29;;;;;;;0.43;0.43;;;14.90;99.90;;;;;;4996331;23;20760;-96
2021/07/25 02:19:57;;;;;;;0.70;0.70;;;15.00;99.90;;;;;;4993630;23;20430;-95
2021/07/25 02:22:28;;;;;;;0.73;0.73;;;14.90;99.90;;;;;;4990665;23;20451;-96
2021/07/25 02:24:55;;;;;;;0.40;0.40;;;14.80;99.90;;;;;;4984063;28;20434;-95
2021/07/25 02:27:22;;;;;;;0.50;0.50;;;14.70;99.90;;;;;;4983966;28;20504;-96
2021/07/25 02:29:49;;;;;;;0.17;0.17;;;14.70;99.90;;;;;;4984332;28;20474;-95
2021/07/25 02:32:17;;;;;;;8.00;2.00;;;14.90;99.90;;;;;;4981684;28;20439;-95
2021/07/25 02:34:51;;;;;;;1.00;0.40;;;14.80;99.90;;;;;;4982131;28;20425;-96
2021/07/25 02:37:19;;;;;;;0.22;0.22;;;14.70;99.90;;;;;;4982678;28;20434;-95
2021/07/25 02:39:47;;;;;;;0.90;0.70;;;14.80;99.90;;;;;;4983014;28;20523;-96
2021/07/25 02:42:14;;;;;;;0.90;0.60;;;14.90;99.90;;;;;;4972900;28;20505;-95
2021/07/25 02:44:41;;;;;;;1.00;0.90;;;14.90;99.90;;;;;;4962277;28;20444;-95
2021/07/25 02:47:08;;;;;;;8.90;0.80;;;15.00;99.90;;;;;;4965522;28;20430;-95
2021/07/25 02:49:35;;;;;;;0.70;0.70;;;14.90;99.90;;;;;;4962537;28;20416;-96
2021/07/25 02:52:12;;;;;;;0.47;0.47;;;14.90;99.90;;;;;;4964481;28;20521;-94
2021/07/25 02:54:43;;;;;;;2.28;0.50;;;14.90;99.90;;;;;;4963542;28;20418;-95
2021/07/25 02:57:10;;;;;;;0.57;0.57;;;14.80;99.90;;;;;;4966625;28;20751;-95
2021/07/25 02:59:37;;;;;;;0.60;0.60;;;14.80;99.90;;;;;;4965063;28;20951;-96
2021/07/25 03:02:04;;;;;;;0.60;0.50;;;15.00;99.90;;;;;;4962085;28;20477;-95
2021/07/25 03:04:32;;;;;;;0.55;0.55;;;15.00;99.90;;;;;;4965018;28;20434;-96
2021/07/25 03:06:59;;;;;;;0.55;0.55;;;15.00;99.90;;;;;;4967167;28;20456;-96
2021/07/25 03:09:29;;;;;;;1.60;1.10;;;15.00;99.90;;;;;;4969887;23;20436;-96
2021/07/25 03:11:57;;;;;;;1.40;0.70;;;14.80;99.90;;;;;;4946384;28;20409;-95
2021/07/25 03:14:24;;;;;;;0.30;0.30;;;14.70;99.90;;;;;;4946616;29;20452;-95
2021/07/25 03:16:52;;;;;;;2.60;0.90;;;14.60;99.90;;;;;;4945577;29;20449;-96
2021/07/25 03:19:21;;;;;;;0.55;0.45;;;14.70;99.90;;;;;;4946268;29;20430;-96
2021/07/25 03:21:48;;;;;;;0.57;0.57;;;14.80;99.90;;;;;;4947937;29;20437;-96
2021/07/25 03:24:15;;;;;;;2.60;1.10;;;14.70;99.90;;;;;;4946400;29;20861;-96
2021/07/25 03:26:43;;;;;;;1.25;0.47;;;14.70;99.90;;;;;;4945265;29;20490;-95
2021/07/25 03:29:10;;;;;;;0.50;0.50;;;14.80;99.90;;;;;;4945725;29;20497;-95
2021/07/25 03:31:37;;;;;;;0.45;0.45;;;14.70;99.90;;;;;;4947504;29;20436;-95
2021/07/25 03:34:05;;;;;;;0.50;0.50;;;14.70;99.90;;;;;;4942887;29;20522;-95
2021/07/25 03:36:32;;;;;;;0.30;0.30;;;14.70;99.90;;;;;;4942674;29;20430;-95
2021/07/25 03:38:59;;;;;;;0.50;0.50;;;14.70;99.90;;;;;;4944485;28;20433;-95
2021/07/25 03:41:26;;;;;;;0.52;0.52;;;14.70;99.90;;;;;;4955366;28;20406;-96
2021/07/25 03:43:53;;;;;;;1.20;1.08;;;14.60;99.90;;;;;;4963615;28;20441;-95
2021/07/25 03:46:20;;;;;;;0.63;0.47;;;14.60;99.90;;;;;;4944455;29;20410;-95
2021/07/25 03:48:47;;;;;;;0.30;0.30;;;14.60;99.90;;;;;;4943419;29;20502;-96
2021/07/25 03:51:15;;;;;;;0.95;0.90;;;14.60;99.90;;;;;;4943899;29;20438;-96
2021/07/25 03:53:43;;;;;;;0.80;0.80;;;14.60;99.90;;;;;;4941937;29;20999;-96
2021/07/25 03:56:10;;;;;;;2.60;0.80;;;14.50;99.90;;;;;;4941271;29;20433;-94
2021/07/25 03:58:37;;;;;;;0.30;0.30;;;14.40;99.90;;;;;;4947832;29;20467;-95
2021/07/25 04:01:04;;;;;;;1.10;0.50;;;14.40;99.90;;;;;;4943274;29;20426;-95
2021/07/25 04:03:31;;;;;;;0.43;0.43;;;14.40;99.90;;;;;;4944836;29;20485;-95
2021/07/25 04:05:58;;;;;;;0.22;0.22;;;14.50;99.90;;;;;;4943575;29;20509;-96
2021/07/25 04:08:25;;;;;;;0.77;0.77;;;14.50;99.90;;;;;;4945556;29;20517;-96
2021/07/25 04:10:53;;;;;;;0.60;0.60;;;14.50;99.90;;;;;;4952563;29;20935;-95
2021/07/25 04:13:20;;;;;;;0.90;0.70;;;14.60;99.90;;;;;;4957464;29;20822;-95
2021/07/25 04:15:47;;;;;;;0.80;0.80;;;14.60;99.90;;;;;;4958923;28;20457;-96
2021/07/25 04:18:14;;;;;;;0.80;0.73;;;14.60;99.90;;;;;;4962529;28;20436;-95
2021/07/25 04:20:41;;;;;;;2.20;0.93;;;14.70;99.90;;;;;;4959699;28;20437;-95
2021/07/25 04:23:08;;;;;;;0.70;0.70;;;14.70;99.90;;;;;;4961382;28;20422;-96
2021/07/25 04:25:36;;;;;;;2.17;0.65;;;14.80;99.90;;;;;;4959732;28;20429;-95
2021/07/25 04:28:03;;;;;;;0.90;0.70;;;14.80;99.90;;;;;;4959295;28;20429;-95
2021/07/25 04:30:33;;;;;;;0.60;0.60;;;14.90;99.90;;;;;;4958099;28;20443;-95
2021/07/25 04:33:03;;;;;;;0.30;0.30;;;15.00;99.90;;;;;;4958848;29;21012;-95
2021/07/25 04:35:32;;;;;;;0.20;0.20;;;15.00;99.90;;;;;;4956118;28;20436;-95
2021/07/25 04:38:00;;;;;;;0.77;0.77;;;15.10;99.90;;;;;;4943097;28;20594;-94
2021/07/25 04:40:27;;;;;;;0.30;0.30;;;15.10;99.90;;;;;;4958598;28;20929;-96
2021/07/25 04:42:57;;;;;;;0.70;0.70;;;15.20;99.90;;;;;;4962062;28;20428;-96
2021/07/25 04:45:30;;;;;;;0.40;0.40;;;15.20;99.90;;;;;;4956735;28;20463;-94
2021/07/25 04:48:19;;;;;;;0.43;0.43;;;15.30;99.90;;;;;;4958907;28;20422;-94
2021/07/25 04:51:01;;;;;;;0.93;0.80;;;15.40;99.90;;;;;;4958290;29;20504;-95
2021/07/25 04:53:36;;;;;;;0.60;0.60;;;15.40;99.90;;;;;;4958216;28;20450;-96
2021/07/25 04:56:04;;;;;;;0.40;0.40;;;15.40;99.90;;;;;;4956515;28;20465;-96
2021/07/25 04:58:52;;;;;;;0.90;0.85;;;15.40;99.90;;;;;;4956586;28;20436;-95
2021/07/25 05:01:28;;;;;;;0.90;0.60;;;15.50;99.90;;;;;;4961574;28;20933;-96
2021/07/25 05:03:56;;;;;;;1.20;0.63;;;15.60;99.90;;;;;;4958470;28;20429;-96
2021/07/25 05:06:23;;;;;;;1.93;1.03;;;15.60;99.90;;;;;;4959453;28;20426;-95
2021/07/25 05:08:51;;;;;;;1.33;0.73;;;15.70;99.90;;;;;;4957114;28;20514;-95
2021/07/25 05:11:26;;;;;;;40.20;0.88;;;15.70;99.90;;;;;;4957563;28;20533;-96
2021/07/25 05:13:57;;;;;;;0.80;0.55;;;15.90;99.90;;;;;;4959825;28;20524;-96
2021/07/25 05:16:28;;;;;;;1.00;0.73;;;16.00;99.90;;;;;;4959762;28;20822;-94
2021/07/25 05:19:27;;;;;;;0.30;0.30;;;16.20;99.90;;;;;;4959324;28;20481;-96
2021/07/25 05:22:36;;;;;;;1.30;0.60;;;16.40;99.90;;;;;;4970445;28;20445;-96
2021/07/25 05:28:47;;;;;;;0.20;0.20;;;16.80;99.90;;;;;;5746741;23;20516;-96
2021/07/25 05:34:03;;;;;;;0.73;0.52;;;17.00;99.90;;;;;;4933656;29;20436;-96
2021/07/25 05:36:33;;;;;;;0.40;0.40;;;17.00;99.90;;;;;;4908064;29;20426;-96
2021/07/25 05:39:06;;;;;;;0.40;0.40;;;17.00;99.90;;;;;;4911024;29;20782;-96
2021/07/25 05:41:35;;;;;;;16.30;0.60;;;17.00;99.90;;;;;;4909075;29;20429;-96
2021/07/25 05:44:03;;;;;;;2.90;0.73;;;16.90;99.90;;;;;;4908599;29;21023;-96
2021/07/25 05:46:33;;;;;;;0.60;0.60;;;16.90;99.90;;;;;;4916580;29;20452;-96
2021/07/25 05:49:00;;;;;;;1.10;0.30;;;16.90;99.90;;;;;;4914958;29;20425;-96
2021/07/25 05:51:33;;;;;;;0.30;0.30;;;17.00;99.90;;;;;;4993241;23;20478;-96
2021/07/25 05:54:14;;;;;;;9.65;0.85;;;17.00;99.90;;;;;;4970219;28;20836;-96
2021/07/25 05:56:48;;;;;;;0.30;0.30;;;16.90;99.90;;;;;;4964131;28;20470;-96
2021/07/25 05:59:31;;;;;;;0.35;0.35;;;16.90;99.90;;;;;;4982479;28;20455;-96
2021/07/25 06:02:03;;;;;;;0.28;0.28;;;17.10;99.90;;;;;;4966053;28;20788;-96
2021/07/25 06:04:39;;;;;;;0.75;0.60;;;17.40;99.90;;;;;;4968494;28;20503;-97
2021/07/25 06:07:16;;;;;;;0.90;0.90;;;18.40;99.90;;;;;;4969191;28;20517;-96
2021/07/25 09:54:27;;;;;;;7.15;4.30;;;25.10;99.90;;;;;;4960699;28;20445;-96
2021/07/25 10:07:53;;;;;;;9.85;6.45;;;25.00;99.90;;;;;;4917311;29;20430;-94
2021/07/25 10:10:23;;;;;;;12.68;6.90;;;24.70;99.90;;;;;;4890307;29;20435;-95
2021/07/25 10:12:51;;;;;;;10.52;6.75;;;24.50;99.90;;;;;;4886353;29;20763;-95
2021/07/25 10:15:18;;;;;;;9.33;5.60;;;24.40;99.90;;;;;;4885661;29;20818;-95
2021/07/25 10:17:47;;;;;;;11.20;6.43;;;24.30;99.90;;;;;;4885851;29;20430;-95
2021/07/25 10:20:16;;;;;;;13.13;7.50;;;24.60;99.90;;;;;;4885841;29;20435;-94
2021/07/25 10:22:48;;;;;;;9.93;6.35;;;24.60;99.90;;;;;;4892858;29;20434;-96
2021/07/25 10:25:17;;;;;;;10.80;5.80;;;24.40;99.90;;;;;;4902588;29;20766;-95
2021/07/25 10:27:45;;;;;;;10.02;6.43;;;24.30;99.90;;;;;;4886718;29;20469;-95
2021/07/25 10:30:14;;;;;;;10.63;6.27;;;24.40;99.90;;;;;;4905818;23;20440;-94
2021/07/25 10:32:42;;;;;;;11.00;7.55;;;24.60;99.90;;;;;;4904690;29;20433;-95
2021/07/25 10:35:12;;;;;;;11.85;7.68;;;24.30;99.90;;;;;;4920117;29;20449;-95
2021/07/25 10:37:41;;;;;;;10.83;7.20;;;24.80;99.90;;;;;;4904034;29;20425;-95
2021/07/25 10:40:10;;;;;;;12.63;6.45;;;24.80;99.90;;;;;;4903546;29;20448;-95
2021/07/25 10:42:50;;;;;;;9.98;7.35;;;25.00;99.90;;;;;;4905002;29;20429;-96
2021/07/25 10:45:18;;;;;;;11.10;7.18;;;25.40;99.90;;;;;;4904043;29;20425;-95
2021/07/25 10:47:48;;;;;;;11.37;7.80;;;25.60;99.90;;;;;;4905410;29;20459;-95
2021/07/25 10:50:21;;;;;;;11.73;7.50;;;25.40;99.90;;;;;;4905764;29;20524;-95
2021/07/25 10:53:16;;;;;;;;;;;;;;;;;;;;;
2021/07/25 11:02:48;;;;;;;12.23;7.40;;;25.10;99.90;;;;;;5692694;23;20813;-91
2021/07/25 11:06:09;;;;;;;10.85;7.68;;;25.30;99.90;;;;;;4946260;28;20425;-92
2021/07/25 11:28:01;;;;;;;9.07;4.88;;;26.10;99.90;;;;;;4890461;29;20532;-92
2021/07/25 11:31:01;;;;;;;8.73;4.60;;;26.10;99.90;;;;;;4878997;29;20432;-92
2021/07/25 11:33:41;;;;;;;7.78;4.10;;;26.30;99.90;;;;;;4887709;29;20430;-89
2021/07/25 11:36:10;;;;;;;8.03;4.50;;;26.60;99.90;;;;;;4887973;29;20440;-96
2021/07/25 11:38:53;;;;;;;7.27;4.50;;;26.80;99.90;;;;;;4892106;29;20444;-92
2021/07/25 11:41:23;;;;;;;6.43;4.28;;;27.00;99.90;;;;;;4874674;29;20837;-89
2021/07/25 11:43:58;;;;;;;7.27;4.43;;;26.60;99.90;;;;;;4878705;29;20451;-89
2021/07/25 11:46:40;;;;;;;7.97;4.17;;;26.80;99.90;;;;;;4923848;23;20457;-90
2021/07/25 11:49:56;;;;;;;7.90;4.20;;;26.70;99.90;;;;;;4953386;29;20426;-94
2021/07/25 11:52:54;;;;;;;9.02;4.40;;;27.20;99.90;;;;;;5225847;23;20433;-96
2021/07/25 11:55:29;;;;;;;6.55;3.80;;;26.90;99.90;;;;;;4987329;28;20438;-95
2021/07/25 12:04:18;;;;;;;5.05;2.97;;;27.10;99.90;;;;;;4935121;29;20425;-93
2021/07/25 12:08:15;;;;;;;7.47;3.40;;;27.40;98.00;;;;;;4882433;29;20414;-92
2021/07/25 12:33:15;;;;;;;5.15;2.53;;;28.20;88.90;;;;;;5171532;23;20424;-96
2021/07/25 12:39:58;;;;;;;10.20;2.80;;;28.60;89.50;;;;;;5040470;23;20466;-96
2021/07/25 16:28:55;;;;;;;29.90;3.33;;;19.90;99.90;;;;;;2477342;23;20631;-92
2021/07/25 16:31:25;;;;;;;17.92;2.45;;;18.00;99.90;;;;;;4911122;29;20439;-96
2021/07/25 16:33:53;;;;;;;28.63;3.10;;;16.60;99.90;;;;;;4890876;29;20439;-96
2021/07/25 16:36:23;;;;;;;0.20;0.20;;;15.80;99.90;;;;;;4889699;29;20438;-93
2021/07/25 16:38:56;;;;;;;0.10;0.10;;;15.30;99.90;;;;;;4905931;29;20466;-94
2021/07/25 16:41:31;;;;;;;0.10;0.10;;;15.10;99.90;;;;;;4899018;29;20441;-96
2021/07/25 16:44:09;;;;;;;0.10;0.10;;;15.10;99.90;;;;;;4890767;29;20466;-93
2021/07/25 16:46:49;;;;;;;0.50;0.50;;;15.10;99.90;;;;;;4893665;29;20403;-96
2021/07/25 16:49:33;;;;;;;0.30;0.30;;;15.10;99.90;;;;;;4894937;29;20429;-93
2021/07/25 16:56:08;;;;;;;0.17;0.17;;;15.20;99.90;;;;;;5617059;23;20430;-95
2021/07/25 16:59:35;;;;;;;0.50;0.40;;;15.30;99.90;;;;;;4964817;28;20433;-92
2021/07/25 17:03:04;;;;;;;0.10;0.10;;;15.20;99.90;;;;;;5404729;23;20425;-94
2021/07/25 17:35:15;;;;;;;0.10;0.10;;;15.10;99.90;;;;;;5988317;23;20413;-91
2021/07/25 17:56:04;;;;;;;0.10;0.10;;;15.50;99.90;;;;;;6033638;23;20389;-93
